Archival Weather

Fukuoka

Fukuoka, Japan (RJFF)

Report from: Tuesday, August 16, 2022 9:30 PM JST
Current time: Sunday, November 27, 2022 5:32 PM JST

Current weather
Weather history
Weather forecast

Present weatherLight rain showers
Temperature26.0°C (78.8°F)
Dew point25.0°C (77.0°F)
Winds 4 kts (2.1 m/s, 4.6 mph) Vrb
Winds variableWinds variable from South-Southeast (160°) to Southwest (230°)
Visibility6.2 mi. (10 km)
Clouds Few clouds 800 ft. (244 m)
Few clouds with cumulonimbus 3,000 ft. (914 m)
Scattered clouds 3,500 ft. (1,067 m)
Ceiling: Broken clouds 4,500 ft. (1,372 m)
Altimeter29.77 in.Hg (1008 mB)
Relative humidity94 %
Density altitude1,871 ft. (570 m)
Flight conditions Visual Meteorological Conditions
Raw dataRJFF 161230Z 19004KT 160V230 9999 -SHRA FEW008 FEW030CB SCT035 BKN045 26/25 Q1008 TEMPO TL1300 -TSRA
An error has occurred. This application may no longer respond until reloaded. Reload 🗙